Terminal Aerodrome Forecast
Issued by NWS

Home | Current Version | Previous Version | Graphics & Text | Print | Product List | Glossary On
Versions: 1 2 3 4 5 6 7 8 9 10 11 12 13 14 15 16 17 18
000
FTUS43 KGRB 182333
TAFAUW
TAF
KAUW 182333Z 1900/1924 12008KT P6SM SCT250
     FM191100 VRB03KT P6SM BKN021
     FM191400 VRB03KT P6SM BKN019
     FM191600 36003KT P6SM BKN015
     FM191800 33006KT P6SM BKN022
     FM192300 35009KT P6SM BKN030=

USA.gov is the U.S. government's official web portal to all federal, state and local government web resources and services.